createdAt,value
2022-12-31T00:00:02.394Z,0.02
2022-12-31T00:05:02.306Z,0.193
2022-12-31T00:10:02.443Z,0.196
2022-12-31T00:15:02.180Z,0.165
2022-12-31T00:20:02.228Z,0.14400000000000002
2022-12-31T00:25:02.269Z,0.148
2022-12-31T00:30:04.617Z,0.14200000000000002
2022-12-31T00:35:02.202Z,0.148
2022-12-31T00:40:02.172Z,0.139
2022-12-31T00:45:02.184Z,0.146
2022-12-31T00:50:02.377Z,0.187
2022-12-31T00:55:02.450Z,0.184
2022-12-31T01:00:02.399Z,0.179
2022-12-31T01:05:02.268Z,0.135
2022-12-31T01:10:02.283Z,0.139
2022-12-31T01:15:02.173Z,0.145
2022-12-31T01:20:02.271Z,0.14400000000000002
2022-12-31T01:25:02.239Z,0.148
2022-12-31T01:30:02.339Z,0.145
2022-12-31T01:35:02.421Z,0.187
2022-12-31T01:40:02.325Z,0.194
2022-12-31T01:45:02.231Z,0.193
2022-12-31T01:50:02.447Z,0.165
2022-12-31T01:55:02.423Z,0.14200000000000002
2022-12-31T02:00:02.294Z,0.132
2022-12-31T02:05:02.313Z,0.12
2022-12-31T02:10:02.316Z,0
2022-12-31T02:15:02.249Z,0
2022-12-31T02:20:02.355Z,0
2022-12-31T02:25:02.292Z,0.062
2022-12-31T02:30:02.286Z,0.183
2022-12-31T02:35:02.412Z,0.185
2022-12-31T02:40:02.457Z,0.145
2022-12-31T02:45:02.367Z,0.14200000000000002
2022-12-31T02:50:02.358Z,0.14100000000000001
2022-12-31T02:55:02.373Z,0.13
2022-12-31T03:00:02.292Z,0.135
2022-12-31T03:05:02.302Z,0.132
2022-12-31T03:10:02.372Z,0.163
2022-12-31T03:15:02.322Z,0.197
2022-12-31T03:20:02.465Z,0.195
2022-12-31T03:25:02.530Z,0.164
2022-12-31T03:30:02.457Z,0.14100000000000001
2022-12-31T03:35:02.436Z,0.14
2022-12-31T03:40:02.335Z,0.135
2022-12-31T03:45:02.371Z,0.138
2022-12-31T03:50:02.341Z,0.14100000000000001
2022-12-31T03:55:02.436Z,0.124
2022-12-31T04:00:02.400Z,0.191
2022-12-31T04:05:02.350Z,0.183
2022-12-31T04:10:02.408Z,0.177
2022-12-31T04:15:03.247Z,0.138
2022-12-31T04:20:02.564Z,0.133
2022-12-31T04:25:02.528Z,0.14100000000000001
2022-12-31T04:30:02.407Z,0.14200000000000002
2022-12-31T04:35:02.416Z,0.095
2022-12-31T04:40:06.099Z,0
2022-12-31T04:45:02.437Z,0.002
2022-12-31T04:50:02.466Z,0
2022-12-31T04:55:02.478Z,0.004
2022-12-31T05:00:02.456Z,0.166
2022-12-31T05:05:02.422Z,0.14400000000000002
2022-12-31T05:10:02.586Z,0.14200000000000002
2022-12-31T05:15:02.539Z,0.132
2022-12-31T05:20:02.550Z,0.131
2022-12-31T05:25:02.478Z,0.129
2022-12-31T05:30:02.447Z,0.132
2022-12-31T05:35:02.402Z,0.177
2022-12-31T05:40:02.392Z,0.177
2022-12-31T05:45:02.584Z,0.182
2022-12-31T05:50:02.570Z,0.14100000000000001
2022-12-31T05:55:02.444Z,0.14
2022-12-31T06:00:02.648Z,0.14300000000000002
2022-12-31T06:05:02.691Z,0.139
2022-12-31T06:10:02.635Z,0.129
2022-12-31T06:15:02.440Z,0.132
2022-12-31T06:20:06.080Z,0.156
2022-12-31T06:25:02.616Z,0.185
2022-12-31T06:30:02.587Z,0.197
2022-12-31T06:35:02.632Z,0.18
2022-12-31T06:40:02.476Z,0.148
2022-12-31T06:45:02.475Z,0.148
2022-12-31T06:50:02.743Z,0.096
2022-12-31T06:55:02.669Z,0
2022-12-31T07:00:02.624Z,0
2022-12-31T07:05:02.570Z,0
2022-12-31T07:10:02.500Z,0.089
2022-12-31T07:15:02.529Z,0.192
2022-12-31T07:20:02.555Z,0.186
2022-12-31T07:25:02.536Z,0.145
2022-12-31T07:30:02.550Z,0.131
2022-12-31T07:35:02.543Z,0.129
2022-12-31T07:40:02.688Z,0.139
2022-12-31T07:45:02.777Z,0.145
2022-12-31T07:50:02.641Z,0.149
2022-12-31T07:55:02.563Z,0.156
2022-12-31T08:00:02.569Z,0.2
2022-12-31T08:05:02.548Z,0.201
2022-12-31T08:10:02.558Z,0.19
2022-12-31T08:15:02.665Z,0.155
2022-12-31T08:20:02.639Z,17.512
2022-12-31T08:25:02.793Z,32.678
2022-12-31T08:30:02.737Z,32.365
2022-12-31T08:35:02.916Z,52.525
2022-12-31T08:40:02.619Z,55.127
2022-12-31T08:45:02.601Z,87.674
2022-12-31T08:50:02.660Z,54.881
2022-12-31T08:55:02.611Z,47.952
2022-12-31T09:00:02.690Z,63.208
2022-12-31T09:05:02.739Z,130.185
2022-12-31T09:10:02.652Z,184.63
2022-12-31T09:15:02.662Z,184.138
2022-12-31T09:20:02.795Z,159.746
2022-12-31T09:25:02.747Z,157.347
2022-12-31T09:30:02.822Z,285.503
2022-12-31T09:35:02.666Z,334.17400000000004
2022-12-31T09:40:02.649Z,323.732
2022-12-31T09:45:02.835Z,228.181
2022-12-31T09:50:02.692Z,188.385
2022-12-31T09:55:02.650Z,180.219
2022-12-31T10:00:02.716Z,208.996
2022-12-31T10:05:02.657Z,218.226
2022-12-31T10:10:02.898Z,148.172
2022-12-31T10:15:02.864Z,234.205
2022-12-31T10:20:02.828Z,144.886
2022-12-31T10:25:02.725Z,127.539
2022-12-31T10:30:02.702Z,163.133
2022-12-31T10:35:02.765Z,196.766
2022-12-31T10:40:02.682Z,216.967
2022-12-31T10:45:02.821Z,214.36700000000002
2022-12-31T10:50:02.786Z,195.523
2022-12-31T10:55:02.680Z,176.394
2022-12-31T11:00:02.759Z,346.291
2022-12-31T11:05:03.005Z,259.12600000000003
2022-12-31T11:10:02.982Z,258.355
2022-12-31T11:15:03.031Z,283.599
2022-12-31T11:20:02.734Z,264.705
2022-12-31T11:25:02.783Z,299.687
2022-12-31T11:30:02.771Z,285.219
2022-12-31T11:35:02.889Z,215.734
2022-12-31T11:40:02.773Z,156.324
2022-12-31T11:45:02.761Z,129.639
2022-12-31T11:50:02.813Z,99.491
2022-12-31T11:55:03.161Z,107.788
2022-12-31T12:00:03.296Z,139.945
2022-12-31T12:05:10.235Z,113.11200000000001
2022-12-31T12:10:02.794Z,97.059
2022-12-31T12:15:02.792Z,53.196
2022-12-31T12:20:02.785Z,43.986000000000004
2022-12-31T12:25:02.812Z,43.541000000000004
2022-12-31T12:30:02.847Z,40.584
2022-12-31T12:35:02.848Z,38.399
2022-12-31T12:40:02.828Z,54.153
2022-12-31T12:45:03.019Z,41.977000000000004
2022-12-31T12:50:02.960Z,48.202
2022-12-31T12:55:02.939Z,42.053000000000004
2022-12-31T13:00:02.847Z,45.538000000000004
2022-12-31T13:05:02.904Z,35.95
2022-12-31T13:25:03.016Z,36.379
2022-12-31T13:30:03.007Z,37.767
2022-12-31T13:35:02.962Z,35.648
2022-12-31T13:40:02.963Z,42.606
2022-12-31T13:45:02.885Z,20.066
2022-12-31T13:50:02.884Z,0.125
2022-12-31T13:55:02.877Z,0.129
2022-12-31T14:00:02.875Z,0.131
2022-12-31T14:05:02.852Z,0.14100000000000001
2022-12-31T14:10:02.849Z,0.14
2022-12-31T14:15:02.983Z,0.14100000000000001
2022-12-31T14:20:03.066Z,0.17
2022-12-31T14:25:03.049Z,0.191
2022-12-31T14:30:03.029Z,0.186
2022-12-31T14:35:02.990Z,0.158
2022-12-31T14:40:03.027Z,0.135
2022-12-31T14:45:02.919Z,0.135
2022-12-31T14:50:03.028Z,0.134
2022-12-31T14:55:03.090Z,0.127
2022-12-31T15:00:03.034Z,0.121
2022-12-31T15:05:02.946Z,0.124
2022-12-31T15:10:03.080Z,0.038
2022-12-31T15:15:03.146Z,0
2022-12-31T15:20:02.983Z,0.001
2022-12-31T15:25:02.957Z,0
2022-12-31T15:30:02.912Z,0.007
2022-12-31T15:35:02.934Z,0.133
2022-12-31T15:40:02.960Z,0.132
2022-12-31T15:45:03.016Z,0.128
2022-12-31T15:50:03.214Z,0.136
2022-12-31T15:55:03.167Z,0.154
2022-12-31T16:00:03.112Z,0.18
2022-12-31T16:05:03.071Z,0.177
2022-12-31T16:10:02.965Z,0.15
2022-12-31T16:15:02.984Z,0.11800000000000001
2022-12-31T16:20:02.989Z,0.12
2022-12-31T16:25:29.466Z,0.12
2022-12-31T16:30:02.982Z,0.11800000000000001
2022-12-31T16:35:03.219Z,0.111
2022-12-31T16:40:03.191Z,0.132
2022-12-31T16:45:03.127Z,0.166
2022-12-31T16:50:02.978Z,0.185
2022-12-31T16:55:03.012Z,0.183
2022-12-31T17:00:03.018Z,0.138
2022-12-31T17:05:03.139Z,0.121
2022-12-31T17:10:03.004Z,0.121
2022-12-31T17:15:03.104Z,0.12
2022-12-31T17:20:03.043Z,0.129
2022-12-31T17:25:03.199Z,0.135
2022-12-31T17:30:03.121Z,0.139
2022-12-31T17:35:03.052Z,0.186
2022-12-31T17:40:24.902Z,0.181
2022-12-31T17:45:03.167Z,0.18
2022-12-31T17:50:03.057Z,0.137
2022-12-31T17:55:03.092Z,0.135
2022-12-31T18:00:03.057Z,0.133
2022-12-31T18:05:03.280Z,0.133
2022-12-31T18:10:03.242Z,0.129
2022-12-31T18:15:03.059Z,0.126
2022-12-31T18:20:04.534Z,0.14400000000000002
2022-12-31T18:25:03.257Z,0.166
2022-12-31T18:30:05.120Z,0.169
2022-12-31T18:35:03.099Z,0.148
2022-12-31T18:40:03.172Z,0.132
2022-12-31T18:45:03.140Z,0.132
2022-12-31T18:50:03.311Z,0.133
2022-12-31T18:55:03.252Z,0.13
2022-12-31T19:00:03.128Z,0.133
2022-12-31T19:05:03.169Z,0.132
2022-12-31T19:10:03.150Z,0.185
2022-12-31T19:15:01.318Z,0.186
2022-12-31T19:20:01.693Z,0.183
2022-12-31T19:25:01.541Z,0.123
2022-12-31T19:30:01.434Z,0.016
2022-12-31T19:35:01.465Z,0
2022-12-31T19:40:01.337Z,0
2022-12-31T19:45:01.371Z,0.017
2022-12-31T19:50:01.315Z,0.114
2022-12-31T19:55:01.371Z,0.148
2022-12-31T20:00:01.466Z,0.185
2022-12-31T20:05:01.355Z,0.184
2022-12-31T20:10:01.474Z,0.161
2022-12-31T20:15:01.511Z,0.135
2022-12-31T20:20:01.472Z,0.125
2022-12-31T20:25:01.450Z,0.121
2022-12-31T20:30:01.365Z,0.12
2022-12-31T20:35:01.430Z,0.121
2022-12-31T20:40:01.410Z,0.124
2022-12-31T20:45:01.334Z,0.178
2022-12-31T20:50:11.298Z,0.183
2022-12-31T20:55:01.667Z,0.184
2022-12-31T21:00:01.598Z,0.14200000000000002
2022-12-31T21:05:01.660Z,0.132
2022-12-31T21:10:01.381Z,0.135
2022-12-31T21:15:01.467Z,0.133
2022-12-31T21:20:01.373Z,0.131
2022-12-31T21:25:01.448Z,0.129
2022-12-31T21:30:18.069Z,0.132
2022-12-31T21:35:39.922Z,0.179
2022-12-31T21:40:01.423Z,0.166
2022-12-31T21:45:01.571Z,0.165
2022-12-31T21:50:01.547Z,0.122
2022-12-31T21:55:01.533Z,0.124
2022-12-31T22:00:24.331Z,0.129
2022-12-31T22:05:02.769Z,0.131
2022-12-31T22:10:01.494Z,0.135
2022-12-31T22:15:14.105Z,0.139
2022-12-31T22:20:25.631Z,0.162
2022-12-31T22:25:01.708Z,0.185
2022-12-31T22:30:01.606Z,0.187
2022-12-31T22:35:01.578Z,0.155
2022-12-31T22:40:01.448Z,0.139
2022-12-31T22:45:01.465Z,0.136
2022-12-31T22:50:01.510Z,0.129
2022-12-31T22:55:01.507Z,0.122
2022-12-31T23:00:01.562Z,0.123
2022-12-31T23:05:15.037Z,0.124
2022-12-31T23:10:01.679Z,0.074
2022-12-31T23:15:01.665Z,0
2022-12-31T23:20:01.565Z,0
2022-12-31T23:25:01.566Z,0
2022-12-31T23:30:01.521Z,0.108
2022-12-31T23:35:06.220Z,0.131
2022-12-31T23:40:01.611Z,0.137
2022-12-31T23:45:01.533Z,0.122
2022-12-31T23:50:01.529Z,0.12
2022-12-31T23:55:01.715Z,0.145
